sensor_id;sensor_type;location;lat;lon;timestamp;P1;durP1;ratioP1;P2;durP2;ratioP2
80619;SDS011;69979;53.682;-2.690;2023-10-09T00:01:48;15;;;15;;
80619;SDS011;69979;53.682;-2.690;2023-10-09T00:04:13;18;;;17;;
80619;SDS011;69979;53.682;-2.690;2023-10-09T00:06:38;17;;;17;;
80619;SDS011;69979;53.682;-2.690;2023-10-09T00:09:04;19;;;17;;
80619;SDS011;69979;53.682;-2.690;2023-10-09T00:11:29;19;;;19;;
80619;SDS011;69979;53.682;-2.690;2023-10-09T00:13:55;21;;;19;;
80619;SDS011;69979;53.682;-2.690;2023-10-09T00:16:20;21;;;18;;
80619;SDS011;69979;53.682;-2.690;2023-10-09T00:18:50;21;;;20;;
80619;SDS011;69979;53.682;-2.690;2023-10-09T00:21:13;24;;;24;;
80619;SDS011;69979;53.682;-2.690;2023-10-09T00:23:36;21;;;20;;
80619;SDS011;69979;53.682;-2.690;2023-10-09T00:26:01;18;;;17;;
80619;SDS011;69979;53.682;-2.690;2023-10-09T00:28:26;19;;;19;;
80619;SDS011;69979;53.682;-2.690;2023-10-09T00:30:52;17;;;17;;
80619;SDS011;69979;53.682;-2.690;2023-10-09T00:33:17;17;;;17;;
80619;SDS011;69979;53.682;-2.690;2023-10-09T00:35:43;19;;;18;;
80619;SDS011;69979;53.682;-2.690;2023-10-09T00:38:08;20;;;19;;
80619;SDS011;69979;53.682;-2.690;2023-10-09T00:40:34;16;;;15;;
80619;SDS011;69979;53.682;-2.690;2023-10-09T00:42:59;18;;;17;;
80619;SDS011;69979;53.682;-2.690;2023-10-09T00:45:24;21;;;21;;
80619;SDS011;69979;53.682;-2.690;2023-10-09T00:47:50;24;;;21;;
80619;SDS011;69979;53.682;-2.690;2023-10-09T00:50:16;18;;;18;;
80619;SDS011;69979;53.682;-2.690;2023-10-09T00:52:42;21;;;21;;
80619;SDS011;69979;53.682;-2.690;2023-10-09T00:55:07;19;;;19;;
80619;SDS011;69979;53.682;-2.690;2023-10-09T00:57:32;16;;;16;;
80619;SDS011;69979;53.682;-2.690;2023-10-09T00:59:57;18;;;17;;
80619;SDS011;69979;53.682;-2.690;2023-10-09T01:02:22;19;;;18;;
80619;SDS011;69979;53.682;-2.690;2023-10-09T01:04:47;18;;;18;;
80619;SDS011;69979;53.682;-2.690;2023-10-09T01:07:13;20;;;19;;
80619;SDS011;69979;53.682;-2.690;2023-10-09T01:09:38;17;;;17;;
80619;SDS011;69979;53.682;-2.690;2023-10-09T01:12:03;18;;;17;;
80619;SDS011;69979;53.682;-2.690;2023-10-09T01:14:29;18;;;16;;
80619;SDS011;69979;53.682;-2.690;2023-10-09T01:16:54;20;;;19;;
80619;SDS011;69979;53.682;-2.690;2023-10-09T01:19:19;19;;;19;;
80619;SDS011;69979;53.682;-2.690;2023-10-09T01:21:44;20;;;20;;
80619;SDS011;69979;53.682;-2.690;2023-10-09T01:24:10;18;;;17;;
80619;SDS011;69979;53.682;-2.690;2023-10-09T01:26:35;14;;;14;;
80619;SDS011;69979;53.682;-2.690;2023-10-09T01:29:00;17;;;16;;
80619;SDS011;69979;53.682;-2.690;2023-10-09T01:31:26;19;;;19;;
80619;SDS011;69979;53.682;-2.690;2023-10-09T01:33:51;20;;;19;;
80619;SDS011;69979;53.682;-2.690;2023-10-09T01:36:16;17;;;17;;
80619;SDS011;69979;53.682;-2.690;2023-10-09T01:38:41;22;;;19;;
80619;SDS011;69979;53.682;-2.690;2023-10-09T01:41:11;20;;;19;;
80619;SDS011;69979;53.682;-2.690;2023-10-09T01:43:34;16;;;16;;
80619;SDS011;69979;53.682;-2.690;2023-10-09T01:45:57;14;;;14;;
80619;SDS011;69979;53.682;-2.690;2023-10-09T01:48:23;17;;;17;;
80619;SDS011;69979;53.682;-2.690;2023-10-09T01:50:48;14;;;13;;
80619;SDS011;69979;53.682;-2.690;2023-10-09T01:53:14;18;;;17;;
80619;SDS011;69979;53.682;-2.690;2023-10-09T01:55:39;20;;;19;;
80619;SDS011;69979;53.682;-2.690;2023-10-09T01:58:04;22;;;20;;
80619;SDS011;69979;53.682;-2.690;2023-10-09T02:00:33;23;;;20;;
80619;SDS011;69979;53.682;-2.690;2023-10-09T02:02:55;21;;;20;;
80619;SDS011;69979;53.682;-2.690;2023-10-09T02:05:21;19;;;18;;
80619;SDS011;69979;53.682;-2.690;2023-10-09T02:07:46;16;;;16;;
80619;SDS011;69979;53.682;-2.690;2023-10-09T02:10:11;17;;;16;;
80619;SDS011;69979;53.682;-2.690;2023-10-09T02:12:36;18;;;17;;
80619;SDS011;69979;53.682;-2.690;2023-10-09T02:15:02;17;;;17;;
80619;SDS011;69979;53.682;-2.690;2023-10-09T02:17:27;15;;;15;;
80619;SDS011;69979;53.682;-2.690;2023-10-09T02:19:52;15;;;15;;
80619;SDS011;69979;53.682;-2.690;2023-10-09T02:22:17;16;;;16;;
80619;SDS011;69979;53.682;-2.690;2023-10-09T02:24:43;13;;;11;;
80619;SDS011;69979;53.682;-2.690;2023-10-09T02:27:09;19;;;18;;
80619;SDS011;69979;53.682;-2.690;2023-10-09T02:29:34;18;;;18;;
80619;SDS011;69979;53.682;-2.690;2023-10-09T02:31:59;19;;;19;;
80619;SDS011;69979;53.682;-2.690;2023-10-09T02:34:24;18;;;17;;
80619;SDS011;69979;53.682;-2.690;2023-10-09T02:36:50;21;;;20;;
80619;SDS011;69979;53.682;-2.690;2023-10-09T02:39:16;14;;;14;;
80619;SDS011;69979;53.682;-2.690;2023-10-09T02:41:41;19;;;18;;
80619;SDS011;69979;53.682;-2.690;2023-10-09T02:44:06;14;;;14;;
80619;SDS011;69979;53.682;-2.690;2023-10-09T02:46:31;16;;;15;;
80619;SDS011;69979;53.682;-2.690;2023-10-09T02:48:57;17;;;17;;
80619;SDS011;69979;53.682;-2.690;2023-10-09T02:51:23;17;;;17;;
80619;SDS011;69979;53.682;-2.690;2023-10-09T02:53:48;14;;;14;;
80619;SDS011;69979;53.682;-2.690;2023-10-09T02:56:13;14;;;14;;
80619;SDS011;69979;53.682;-2.690;2023-10-09T02:58:39;16;;;15;;
80619;SDS011;69979;53.682;-2.690;2023-10-09T03:01:04;15;;;15;;
80619;SDS011;69979;53.682;-2.690;2023-10-09T03:03:29;14;;;14;;
80619;SDS011;69979;53.682;-2.690;2023-10-09T03:05:55;16;;;15;;
80619;SDS011;69979;53.682;-2.690;2023-10-09T03:08:20;21;;;18;;
80619;SDS011;69979;53.682;-2.690;2023-10-09T03:10:45;17;;;17;;
80619;SDS011;69979;53.682;-2.690;2023-10-09T03:13:11;18;;;17;;
80619;SDS011;69979;53.682;-2.690;2023-10-09T03:15:38;14;;;14;;
80619;SDS011;69979;53.682;-2.690;2023-10-09T03:18:04;17;;;17;;
80619;SDS011;69979;53.682;-2.690;2023-10-09T03:20:27;12;;;12;;
80619;SDS011;69979;53.682;-2.690;2023-10-09T03:22:52;14;;;13;;
80619;SDS011;69979;53.682;-2.690;2023-10-09T03:25:18;15;;;14;;
80619;SDS011;69979;53.682;-2.690;2023-10-09T03:27:44;14;;;14;;
80619;SDS011;69979;53.682;-2.690;2023-10-09T03:30:09;16;;;15;;
80619;SDS011;69979;53.682;-2.690;2023-10-09T03:32:34;16;;;16;;
80619;SDS011;69979;53.682;-2.690;2023-10-09T03:35:00;12;;;11;;
80619;SDS011;69979;53.682;-2.690;2023-10-09T03:37:25;18;;;17;;
80619;SDS011;69979;53.682;-2.690;2023-10-09T03:39:51;15;;;14;;
80619;SDS011;69979;53.682;-2.690;2023-10-09T03:42:16;15;;;13;;
80619;SDS011;69979;53.682;-2.690;2023-10-09T03:44:42;17;;;16;;
80619;SDS011;69979;53.682;-2.690;2023-10-09T03:47:07;12;;;12;;
80619;SDS011;69979;53.682;-2.690;2023-10-09T03:49:38;10;;;10;;
80619;SDS011;69979;53.682;-2.690;2023-10-09T03:51:58;10;;;10;;
80619;SDS011;69979;53.682;-2.690;2023-10-09T03:54:23;12;;;11;;
80619;SDS011;69979;53.682;-2.690;2023-10-09T03:56:48;16;;;16;;
80619;SDS011;69979;53.682;-2.690;2023-10-09T03:59:14;16;;;16;;
80619;SDS011;69979;53.682;-2.690;2023-10-09T04:01:39;14;;;13;;
80619;SDS011;69979;53.682;-2.690;2023-10-09T04:04:05;13;;;13;;
80619;SDS011;69979;53.682;-2.690;2023-10-09T04:06:30;16;;;15;;
80619;SDS011;69979;53.682;-2.690;2023-10-09T04:08:55;14;;;13;;
80619;SDS011;69979;53.682;-2.690;2023-10-09T04:11:20;12;;;10;;
80619;SDS011;69979;53.682;-2.690;2023-10-09T04:13:46;12;;;11;;
80619;SDS011;69979;53.682;-2.690;2023-10-09T04:16:11;11;;;11;;
80619;SDS011;69979;53.682;-2.690;2023-10-09T04:18:36;12;;;12;;
80619;SDS011;69979;53.682;-2.690;2023-10-09T04:21:02;12;;;12;;
80619;SDS011;69979;53.682;-2.690;2023-10-09T04:23:27;11;;;11;;
80619;SDS011;69979;53.682;-2.690;2023-10-09T04:25:52;10;;;9;;
80619;SDS011;69979;53.682;-2.690;2023-10-09T04:28:17;15;;;14;;
80619;SDS011;69979;53.682;-2.690;2023-10-09T04:30:43;11;;;10;;
80619;SDS011;69979;53.682;-2.690;2023-10-09T04:33:08;10;;;9;;
80619;SDS011;69979;53.682;-2.690;2023-10-09T04:35:33;11;;;10;;
80619;SDS011;69979;53.682;-2.690;2023-10-09T04:37:59;14;;;13;;
80619;SDS011;69979;53.682;-2.690;2023-10-09T04:40:24;13;;;12;;
80619;SDS011;69979;53.682;-2.690;2023-10-09T04:42:49;13;;;13;;
80619;SDS011;69979;53.682;-2.690;2023-10-09T04:45:15;11;;;11;;
80619;SDS011;69979;53.682;-2.690;2023-10-09T04:47:40;12;;;11;;
80619;SDS011;69979;53.682;-2.690;2023-10-09T04:50:05;12;;;11;;
80619;SDS011;69979;53.682;-2.690;2023-10-09T04:52:30;14;;;14;;
80619;SDS011;69979;53.682;-2.690;2023-10-09T04:54:56;12;;;11;;
80619;SDS011;69979;53.682;-2.690;2023-10-09T04:57:21;13;;;13;;
80619;SDS011;69979;53.682;-2.690;2023-10-09T04:59:47;10;;;10;;
80619;SDS011;69979;53.682;-2.690;2023-10-09T05:02:12;12;;;12;;
80619;SDS011;69979;53.682;-2.690;2023-10-09T05:04:37;8;;;8;;
80619;SDS011;69979;53.682;-2.690;2023-10-09T05:07:02;8;;;7;;
80619;SDS011;69979;53.682;-2.690;2023-10-09T05:09:28;11;;;11;;
80619;SDS011;69979;53.682;-2.690;2023-10-09T05:11:53;10;;;10;;
80619;SDS011;69979;53.682;-2.690;2023-10-09T05:14:19;14;;;13;;
80619;SDS011;69979;53.682;-2.690;2023-10-09T05:16:43;11;;;9;;
80619;SDS011;69979;53.682;-2.690;2023-10-09T05:19:09;14;;;14;;
80619;SDS011;69979;53.682;-2.690;2023-10-09T05:21:34;14;;;13;;
80619;SDS011;69979;53.682;-2.690;2023-10-09T05:23:59;12;;;11;;
80619;SDS011;69979;53.682;-2.690;2023-10-09T05:26:24;12;;;12;;
80619;SDS011;69979;53.682;-2.690;2023-10-09T05:28:50;10;;;10;;
80619;SDS011;69979;53.682;-2.690;2023-10-09T05:31:15;9;;;9;;
80619;SDS011;69979;53.682;-2.690;2023-10-09T05:33:40;11;;;10;;
80619;SDS011;69979;53.682;-2.690;2023-10-09T05:36:06;13;;;13;;
80619;SDS011;69979;53.682;-2.690;2023-10-09T05:38:31;13;;;13;;
80619;SDS011;69979;53.682;-2.690;2023-10-09T05:40:56;11;;;10;;
80619;SDS011;69979;53.682;-2.690;2023-10-09T05:43:22;8;;;8;;
80619;SDS011;69979;53.682;-2.690;2023-10-09T05:45:47;13;;;12;;
80619;SDS011;69979;53.682;-2.690;2023-10-09T05:48:12;11;;;11;;
80619;SDS011;69979;53.682;-2.690;2023-10-09T05:50:37;12;;;12;;
80619;SDS011;69979;53.682;-2.690;2023-10-09T05:53:03;14;;;13;;
80619;SDS011;69979;53.682;-2.690;2023-10-09T05:55:29;11;;;11;;
80619;SDS011;69979;53.682;-2.690;2023-10-09T05:57:54;11;;;11;;
80619;SDS011;69979;53.682;-2.690;2023-10-09T06:00:19;9;;;9;;
80619;SDS011;69979;53.682;-2.690;2023-10-09T06:02:44;10;;;10;;
80619;SDS011;69979;53.682;-2.690;2023-10-09T06:05:10;11;;;11;;
80619;SDS011;69979;53.682;-2.690;2023-10-09T06:07:35;9;;;8;;
80619;SDS011;69979;53.682;-2.690;2023-10-09T06:10:00;9;;;9;;
80619;SDS011;69979;53.682;-2.690;2023-10-09T06:12:25;12;;;12;;
80619;SDS011;69979;53.682;-2.690;2023-10-09T06:14:51;11;;;9;;
80619;SDS011;69979;53.682;-2.690;2023-10-09T06:17:16;12;;;11;;
80619;SDS011;69979;53.682;-2.690;2023-10-09T06:19:41;10;;;9;;
80619;SDS011;69979;53.682;-2.690;2023-10-09T06:22:07;14;;;11;;
80619;SDS011;69979;53.682;-2.690;2023-10-09T06:24:32;12;;;12;;
80619;SDS011;69979;53.682;-2.690;2023-10-09T06:26:58;10;;;9;;
80619;SDS011;69979;53.682;-2.690;2023-10-09T06:29:23;13;;;12;;
80619;SDS011;69979;53.682;-2.690;2023-10-09T06:31:48;11;;;11;;
80619;SDS011;69979;53.682;-2.690;2023-10-09T06:34:14;13;;;12;;
80619;SDS011;69979;53.682;-2.690;2023-10-09T06:36:39;16;;;15;;
80619;SDS011;69979;53.682;-2.690;2023-10-09T06:39:04;10;;;10;;
80619;SDS011;69979;53.682;-2.690;2023-10-09T06:41:30;11;;;11;;
80619;SDS011;69979;53.682;-2.690;2023-10-09T06:43:55;9;;;9;;
80619;SDS011;69979;53.682;-2.690;2023-10-09T06:46:21;11;;;11;;
80619;SDS011;69979;53.682;-2.690;2023-10-09T06:48:46;13;;;12;;
80619;SDS011;69979;53.682;-2.690;2023-10-09T06:51:12;12;;;12;;
80619;SDS011;69979;53.682;-2.690;2023-10-09T06:53:37;11;;;11;;
80619;SDS011;69979;53.682;-2.690;2023-10-09T06:56:02;9;;;7;;
80619;SDS011;69979;53.682;-2.690;2023-10-09T06:58:28;13;;;11;;
80619;SDS011;69979;53.682;-2.690;2023-10-09T07:00:53;9;;;9;;
80619;SDS011;69979;53.682;-2.690;2023-10-09T07:03:18;8;;;7;;
80619;SDS011;69979;53.682;-2.690;2023-10-09T07:05:44;10;;;10;;
80619;SDS011;69979;53.682;-2.690;2023-10-09T07:08:09;9;;;9;;
80619;SDS011;69979;53.682;-2.690;2023-10-09T07:10:34;8;;;8;;
80619;SDS011;69979;53.682;-2.690;2023-10-09T07:13:00;9;;;9;;
80619;SDS011;69979;53.682;-2.690;2023-10-09T07:15:25;9;;;9;;
80619;SDS011;69979;53.682;-2.690;2023-10-09T07:17:50;8;;;8;;
80619;SDS011;69979;53.682;-2.690;2023-10-09T07:20:15;10;;;10;;
80619;SDS011;69979;53.682;-2.690;2023-10-09T07:22:41;11;;;10;;
80619;SDS011;69979;53.682;-2.690;2023-10-09T07:25:06;9;;;8;;
80619;SDS011;69979;53.682;-2.690;2023-10-09T07:27:32;14;;;14;;
80619;SDS011;69979;53.682;-2.690;2023-10-09T07:29:57;11;;;11;;
80619;SDS011;69979;53.682;-2.690;2023-10-09T07:32:23;10;;;10;;
80619;SDS011;69979;53.682;-2.690;2023-10-09T07:34:48;9;;;9;;
80619;SDS011;69979;53.682;-2.690;2023-10-09T07:37:13;10;;;9;;
80619;SDS011;69979;53.682;-2.690;2023-10-09T07:39:39;10;;;10;;
80619;SDS011;69979;53.682;-2.690;2023-10-09T07:42:04;13;;;12;;
80619;SDS011;69979;53.682;-2.690;2023-10-09T07:44:30;13;;;12;;
80619;SDS011;69979;53.682;-2.690;2023-10-09T07:46:55;11;;;11;;
80619;SDS011;69979;53.682;-2.690;2023-10-09T07:49:20;9;;;9;;
80619;SDS011;69979;53.682;-2.690;2023-10-09T07:51:46;9;;;9;;
80619;SDS011;69979;53.682;-2.690;2023-10-09T07:54:11;12;;;12;;
80619;SDS011;69979;53.682;-2.690;2023-10-09T07:56:37;11;;;10;;
80619;SDS011;69979;53.682;-2.690;2023-10-09T07:59:02;13;;;12;;
80619;SDS011;69979;53.682;-2.690;2023-10-09T08:01:27;11;;;11;;
80619;SDS011;69979;53.682;-2.690;2023-10-09T08:03:53;13;;;12;;
80619;SDS011;69979;53.682;-2.690;2023-10-09T08:06:18;12;;;12;;
80619;SDS011;69979;53.682;-2.690;2023-10-09T08:08:43;13;;;13;;
80619;SDS011;69979;53.682;-2.690;2023-10-09T08:11:09;16;;;16;;
80619;SDS011;69979;53.682;-2.690;2023-10-09T08:13:34;11;;;11;;
80619;SDS011;69979;53.682;-2.690;2023-10-09T08:16:00;13;;;13;;
80619;SDS011;69979;53.682;-2.690;2023-10-09T08:18:25;13;;;13;;
80619;SDS011;69979;53.682;-2.690;2023-10-09T08:20:50;14;;;13;;
80619;SDS011;69979;53.682;-2.690;2023-10-09T08:23:16;13;;;13;;
80619;SDS011;69979;53.682;-2.690;2023-10-09T08:25:41;9;;;9;;
80619;SDS011;69979;53.682;-2.690;2023-10-09T08:28:06;12;;;12;;
80619;SDS011;69979;53.682;-2.690;2023-10-09T08:30:32;14;;;13;;
80619;SDS011;69979;53.682;-2.690;2023-10-09T08:32:57;12;;;12;;
80619;SDS011;69979;53.682;-2.690;2023-10-09T08:35:22;13;;;13;;
80619;SDS011;69979;53.682;-2.690;2023-10-09T08:37:47;12;;;12;;
80619;SDS011;69979;53.682;-2.690;2023-10-09T08:40:13;10;;;10;;
80619;SDS011;69979;53.682;-2.690;2023-10-09T08:42:38;13;;;11;;
80619;SDS011;69979;53.682;-2.690;2023-10-09T08:45:03;12;;;11;;
80619;SDS011;69979;53.682;-2.690;2023-10-09T08:47:29;13;;;12;;
80619;SDS011;69979;53.682;-2.690;2023-10-09T08:49:54;17;;;15;;
80619;SDS011;69979;53.682;-2.690;2023-10-09T08:52:19;9;;;9;;
80619;SDS011;69979;53.682;-2.690;2023-10-09T08:54:44;13;;;13;;
80619;SDS011;69979;53.682;-2.690;2023-10-09T08:57:10;12;;;12;;
80619;SDS011;69979;53.682;-2.690;2023-10-09T08:59:39;16;;;13;;
80619;SDS011;69979;53.682;-2.690;2023-10-09T09:02:01;14;;;13;;
80619;SDS011;69979;53.682;-2.690;2023-10-09T09:04:35;13;;;13;;
80619;SDS011;69979;53.682;-2.690;2023-10-09T09:06:52;12;;;11;;
80619;SDS011;69979;53.682;-2.690;2023-10-09T09:09:17;12;;;12;;
80619;SDS011;69979;53.682;-2.690;2023-10-09T09:11:43;12;;;12;;
80619;SDS011;69979;53.682;-2.690;2023-10-09T09:14:08;16;;;15;;
80619;SDS011;69979;53.682;-2.690;2023-10-09T09:16:34;11;;;10;;
80619;SDS011;69979;53.682;-2.690;2023-10-09T09:19:00;13;;;13;;
80619;SDS011;69979;53.682;-2.690;2023-10-09T09:21:24;13;;;11;;
80619;SDS011;69979;53.682;-2.690;2023-10-09T09:23:53;15;;;14;;
80619;SDS011;69979;53.682;-2.690;2023-10-09T09:26:15;12;;;12;;
80619;SDS011;69979;53.682;-2.690;2023-10-09T09:31:07;19;;;18;;
80619;SDS011;69979;53.682;-2.690;2023-10-09T09:33:32;13;;;12;;
80619;SDS011;69979;53.682;-2.690;2023-10-09T09:35:58;16;;;16;;
80619;SDS011;69979;53.682;-2.690;2023-10-09T09:38:22;17;;;16;;
80619;SDS011;69979;53.682;-2.690;2023-10-09T09:40:47;16;;;15;;
80619;SDS011;69979;53.682;-2.690;2023-10-09T09:43:13;13;;;13;;
80619;SDS011;69979;53.682;-2.690;2023-10-09T09:45:39;18;;;16;;
80619;SDS011;69979;53.682;-2.690;2023-10-09T09:48:05;17;;;16;;
80619;SDS011;69979;53.682;-2.690;2023-10-09T09:50:30;18;;;16;;
80619;SDS011;69979;53.682;-2.690;2023-10-09T09:52:56;18;;;17;;
80619;SDS011;69979;53.682;-2.690;2023-10-09T09:55:23;14;;;14;;
80619;SDS011;69979;53.682;-2.690;2023-10-09T09:57:47;17;;;16;;
80619;SDS011;69979;53.682;-2.690;2023-10-09T10:00:12;16;;;16;;
80619;SDS011;69979;53.682;-2.690;2023-10-09T10:02:37;13;;;13;;
80619;SDS011;69979;53.682;-2.690;2023-10-09T10:05:02;18;;;14;;
80619;SDS011;69979;53.682;-2.690;2023-10-09T10:07:28;16;;;14;;
80619;SDS011;69979;53.682;-2.690;2023-10-09T10:09:53;13;;;12;;
80619;SDS011;69979;53.682;-2.690;2023-10-09T10:12:48;14;;;13;;
80619;SDS011;69979;53.682;-2.690;2023-10-09T10:14:52;15;;;15;;
80619;SDS011;69979;53.682;-2.690;2023-10-09T10:17:09;15;;;15;;
80619;SDS011;69979;53.682;-2.690;2023-10-09T10:22:00;16;;;15;;
80619;SDS011;69979;53.682;-2.690;2023-10-09T10:26:53;16;;;14;;
80619;SDS011;69979;53.682;-2.690;2023-10-09T10:29:16;15;;;15;;
80619;SDS011;69979;53.682;-2.690;2023-10-09T10:34:06;17;;;17;;
80619;SDS011;69979;53.682;-2.690;2023-10-09T10:36:31;17;;;17;;
80619;SDS011;69979;53.682;-2.690;2023-10-09T10:39:00;14;;;14;;
80619;SDS011;69979;53.682;-2.690;2023-10-09T10:41:22;17;;;16;;
80619;SDS011;69979;53.682;-2.690;2023-10-09T10:43:47;21;;;20;;
80619;SDS011;69979;53.682;-2.690;2023-10-09T10:46:12;13;;;12;;
80619;SDS011;69979;53.682;-2.690;2023-10-09T10:48:38;11;;;11;;
80619;SDS011;69979;53.682;-2.690;2023-10-09T10:51:03;11;;;11;;
80619;SDS011;69979;53.682;-2.690;2023-10-09T10:53:29;14;;;14;;
80619;SDS011;69979;53.682;-2.690;2023-10-09T10:55:54;14;;;14;;
80619;SDS011;69979;53.682;-2.690;2023-10-09T10:58:19;12;;;12;;
80619;SDS011;69979;53.682;-2.690;2023-10-09T11:00:45;13;;;12;;
80619;SDS011;69979;53.682;-2.690;2023-10-09T11:03:10;15;;;15;;
80619;SDS011;69979;53.682;-2.690;2023-10-09T11:05:36;16;;;15;;
80619;SDS011;69979;53.682;-2.690;2023-10-09T11:08:05;15;;;14;;
80619;SDS011;69979;53.682;-2.690;2023-10-09T11:10:27;13;;;13;;
80619;SDS011;69979;53.682;-2.690;2023-10-09T11:12:52;12;;;11;;
80619;SDS011;69979;53.682;-2.690;2023-10-09T11:15:17;12;;;12;;
80619;SDS011;69979;53.682;-2.690;2023-10-09T11:17:43;11;;;10;;
80619;SDS011;69979;53.682;-2.690;2023-10-09T11:20:08;11;;;10;;
80619;SDS011;69979;53.682;-2.690;2023-10-09T11:22:34;13;;;12;;
80619;SDS011;69979;53.682;-2.690;2023-10-09T11:24:59;13;;;10;;
80619;SDS011;69979;53.682;-2.690;2023-10-09T11:27:24;10;;;9;;
80619;SDS011;69979;53.682;-2.690;2023-10-09T11:29:50;9;;;8;;
80619;SDS011;69979;53.682;-2.690;2023-10-09T11:32:16;8;;;7;;
80619;SDS011;69979;53.682;-2.690;2023-10-09T11:34:40;8;;;7;;
80619;SDS011;69979;53.682;-2.690;2023-10-09T11:39:31;9;;;8;;
80619;SDS011;69979;53.682;-2.690;2023-10-09T11:49:13;5;;;4;;
80619;SDS011;69979;53.682;-2.690;2023-10-09T11:51:38;6;;;6;;
80619;SDS011;69979;53.682;-2.690;2023-10-09T11:54:04;6;;;6;;
80619;SDS011;69979;53.682;-2.690;2023-10-09T11:56:29;5;;;5;;
80619;SDS011;69979;53.682;-2.690;2023-10-09T11:58:54;5;;;5;;
80619;SDS011;69979;53.682;-2.690;2023-10-09T12:01:20;5;;;5;;
80619;SDS011;69979;53.682;-2.690;2023-10-09T12:03:45;4;;;4;;
80619;SDS011;69979;53.682;-2.690;2023-10-09T12:06:11;4;;;3;;
80619;SDS011;69979;53.682;-2.690;2023-10-09T12:08:36;5;;;5;;
80619;SDS011;69979;53.682;-2.690;2023-10-09T12:11:02;6;;;5;;
80619;SDS011;69979;53.682;-2.690;2023-10-09T12:13:27;5;;;5;;
80619;SDS011;69979;53.682;-2.690;2023-10-09T12:15:52;4;;;4;;
80619;SDS011;69979;53.682;-2.690;2023-10-09T12:18:19;5;;;5;;
80619;SDS011;69979;53.682;-2.690;2023-10-09T12:20:43;5;;;5;;
80619;SDS011;69979;53.682;-2.690;2023-10-09T12:23:08;6;;;6;;
80619;SDS011;69979;53.682;-2.690;2023-10-09T12:25:34;5;;;5;;
80619;SDS011;69979;53.682;-2.690;2023-10-09T12:27:59;4;;;4;;
80619;SDS011;69979;53.682;-2.690;2023-10-09T12:30:24;5;;;5;;
80619;SDS011;69979;53.682;-2.690;2023-10-09T12:32:50;6;;;6;;
80619;SDS011;69979;53.682;-2.690;2023-10-09T12:35:15;4;;;4;;
80619;SDS011;69979;53.682;-2.690;2023-10-09T12:37:41;5;;;5;;
80619;SDS011;69979;53.682;-2.690;2023-10-09T12:40:07;7;;;7;;
80619;SDS011;69979;53.682;-2.690;2023-10-09T12:42:31;7;;;6;;
80619;SDS011;69979;53.682;-2.690;2023-10-09T12:44:57;6;;;6;;
80619;SDS011;69979;53.682;-2.690;2023-10-09T12:47:22;4;;;4;;
80619;SDS011;69979;53.682;-2.690;2023-10-09T12:49:48;7;;;7;;
80619;SDS011;69979;53.682;-2.690;2023-10-09T12:52:13;10;;;9;;
80619;SDS011;69979;53.682;-2.690;2023-10-09T12:54:39;7;;;7;;
80619;SDS011;69979;53.682;-2.690;2023-10-09T12:57:04;6;;;6;;
80619;SDS011;69979;53.682;-2.690;2023-10-09T12:59:29;7;;;7;;
80619;SDS011;69979;53.682;-2.690;2023-10-09T13:01:55;5;;;5;;
80619;SDS011;69979;53.682;-2.690;2023-10-09T13:04:20;7;;;7;;
80619;SDS011;69979;53.682;-2.690;2023-10-09T13:06:45;6;;;6;;
80619;SDS011;69979;53.682;-2.690;2023-10-09T13:09:11;7;;;7;;
80619;SDS011;69979;53.682;-2.690;2023-10-09T13:11:36;7;;;7;;
80619;SDS011;69979;53.682;-2.690;2023-10-09T13:14:01;9;;;9;;
80619;SDS011;69979;53.682;-2.690;2023-10-09T13:16:27;7;;;7;;
80619;SDS011;69979;53.682;-2.690;2023-10-09T13:18:53;6;;;5;;
80619;SDS011;69979;53.682;-2.690;2023-10-09T13:21:18;6;;;5;;
80619;SDS011;69979;53.682;-2.690;2023-10-09T13:23:43;4;;;4;;
80619;SDS011;69979;53.682;-2.690;2023-10-09T13:26:08;5;;;5;;
80619;SDS011;69979;53.682;-2.690;2023-10-09T13:28:39;7;;;7;;
80619;SDS011;69979;53.682;-2.690;2023-10-09T13:30:59;5;;;5;;
80619;SDS011;69979;53.682;-2.690;2023-10-09T13:33:24;4;;;3;;
80619;SDS011;69979;53.682;-2.690;2023-10-09T13:35:50;6;;;6;;
80619;SDS011;69979;53.682;-2.690;2023-10-09T13:38:15;6;;;6;;
80619;SDS011;69979;53.682;-2.690;2023-10-09T13:40:40;4;;;4;;
80619;SDS011;69979;53.682;-2.690;2023-10-09T13:43:06;5;;;5;;
80619;SDS011;69979;53.682;-2.690;2023-10-09T13:45:31;5;;;5;;
80619;SDS011;69979;53.682;-2.690;2023-10-09T13:47:56;5;;;5;;
80619;SDS011;69979;53.682;-2.690;2023-10-09T13:50:23;5;;;5;;
80619;SDS011;69979;53.682;-2.690;2023-10-09T13:52:47;5;;;5;;
80619;SDS011;69979;53.682;-2.690;2023-10-09T13:55:13;7;;;7;;
80619;SDS011;69979;53.682;-2.690;2023-10-09T13:57:38;4;;;4;;
80619;SDS011;69979;53.682;-2.690;2023-10-09T14:00:04;5;;;5;;
80619;SDS011;69979;53.682;-2.690;2023-10-09T14:02:29;7;;;7;;
80619;SDS011;69979;53.682;-2.690;2023-10-09T14:04:54;6;;;6;;
80619;SDS011;69979;53.682;-2.690;2023-10-09T14:07:20;7;;;6;;
80619;SDS011;69979;53.682;-2.690;2023-10-09T14:09:45;9;;;8;;
80619;SDS011;69979;53.682;-2.690;2023-10-09T14:12:10;8;;;7;;
80619;SDS011;69979;53.682;-2.690;2023-10-09T14:14:37;8;;;8;;
80619;SDS011;69979;53.682;-2.690;2023-10-09T14:17:01;9;;;8;;
80619;SDS011;69979;53.682;-2.690;2023-10-09T14:19:26;8;;;8;;
80619;SDS011;69979;53.682;-2.690;2023-10-09T14:21:52;9;;;8;;
80619;SDS011;69979;53.682;-2.690;2023-10-09T14:24:17;10;;;10;;
80619;SDS011;69979;53.682;-2.690;2023-10-09T14:26:42;9;;;9;;
80619;SDS011;69979;53.682;-2.690;2023-10-09T14:29:08;10;;;10;;
80619;SDS011;69979;53.682;-2.690;2023-10-09T14:31:33;7;;;7;;
80619;SDS011;69979;53.682;-2.690;2023-10-09T14:33:58;14;;;13;;
80619;SDS011;69979;53.682;-2.690;2023-10-09T14:36:23;12;;;12;;
80619;SDS011;69979;53.682;-2.690;2023-10-09T14:38:49;12;;;11;;
80619;SDS011;69979;53.682;-2.690;2023-10-09T14:41:14;10;;;10;;
80619;SDS011;69979;53.682;-2.690;2023-10-09T14:43:39;9;;;9;;
80619;SDS011;69979;53.682;-2.690;2023-10-09T14:46:04;10;;;9;;
80619;SDS011;69979;53.682;-2.690;2023-10-09T14:48:30;8;;;7;;
80619;SDS011;69979;53.682;-2.690;2023-10-09T14:50:55;10;;;10;;
80619;SDS011;69979;53.682;-2.690;2023-10-09T14:53:21;10;;;10;;
80619;SDS011;69979;53.682;-2.690;2023-10-09T14:55:46;10;;;10;;
80619;SDS011;69979;53.682;-2.690;2023-10-09T14:58:12;16;;;15;;
80619;SDS011;69979;53.682;-2.690;2023-10-09T15:00:37;12;;;12;;
80619;SDS011;69979;53.682;-2.690;2023-10-09T15:03:02;17;;;17;;
80619;SDS011;69979;53.682;-2.690;2023-10-09T15:05:27;16;;;16;;
80619;SDS011;69979;53.682;-2.690;2023-10-09T15:07:53;14;;;14;;
80619;SDS011;69979;53.682;-2.690;2023-10-09T15:10:19;16;;;15;;
80619;SDS011;69979;53.682;-2.690;2023-10-09T15:12:44;15;;;15;;
80619;SDS011;69979;53.682;-2.690;2023-10-09T15:15:09;16;;;16;;
80619;SDS011;69979;53.682;-2.690;2023-10-09T15:17:34;16;;;15;;
80619;SDS011;69979;53.682;-2.690;2023-10-09T15:20:13;18;;;16;;
80619;SDS011;69979;53.682;-2.690;2023-10-09T15:22:37;13;;;13;;
80619;SDS011;69979;53.682;-2.690;2023-10-09T15:25:03;15;;;13;;
80619;SDS011;69979;53.682;-2.690;2023-10-09T15:27:28;12;;;12;;
80619;SDS011;69979;53.682;-2.690;2023-10-09T15:29:53;12;;;12;;
80619;SDS011;69979;53.682;-2.690;2023-10-09T15:32:19;11;;;10;;
80619;SDS011;69979;53.682;-2.690;2023-10-09T15:34:44;10;;;9;;
80619;SDS011;69979;53.682;-2.690;2023-10-09T15:37:09;12;;;12;;
80619;SDS011;69979;53.682;-2.690;2023-10-09T15:39:35;8;;;8;;
80619;SDS011;69979;53.682;-2.690;2023-10-09T15:42:00;12;;;12;;
80619;SDS011;69979;53.682;-2.690;2023-10-09T15:44:25;10;;;10;;